createdAt,value
2017-08-19T00:00:55.688Z,967.8
2017-08-19T00:01:57.352Z,967.8
2017-08-19T00:02:59.009Z,967.8
2017-08-19T00:04:00.664Z,967.8
2017-08-19T00:05:02.321Z,967.8
2017-08-19T00:06:03.976Z,967.8
2017-08-19T00:07:05.634Z,967.9
2017-08-19T00:08:07.321Z,967.9
2017-08-19T00:09:08.985Z,967.9
2017-08-19T00:10:10.638Z,967.9
2017-08-19T00:11:12.311Z,967.9
2017-08-19T00:12:13.963Z,967.9
2017-08-19T00:13:15.633Z,967.9
2017-08-19T00:14:17.293Z,967.9
2017-08-19T00:15:20.628Z,967.9
2017-08-19T00:16:22.287Z,967.8
2017-08-19T00:17:23.936Z,967.9
2017-08-19T00:18:25.597Z,967.9
2017-08-19T00:19:27.264Z,967.9
2017-08-19T00:20:28.915Z,967.8
2017-08-19T00:21:30.572Z,967.9
2017-08-19T00:22:32.229Z,967.9
2017-08-19T00:23:33.898Z,967.9
2017-08-19T00:24:35.551Z,967.9
2017-08-19T00:25:37.202Z,967.9
2017-08-19T00:26:38.870Z,967.9
2017-08-19T00:27:40.530Z,967.9
2017-08-19T00:28:42.190Z,967.9
2017-08-19T00:29:43.845Z,967.9
2017-08-19T00:30:45.515Z,967.9
2017-08-19T00:31:47.176Z,967.9
2017-08-19T00:32:48.837Z,967.9
2017-08-19T00:33:50.615Z,968.0
2017-08-19T00:34:52.267Z,968.0
2017-08-19T00:35:53.932Z,968.0
2017-08-19T00:36:55.600Z,968.0
2017-08-19T00:37:57.270Z,968.0
2017-08-19T00:38:58.929Z,968.0
2017-08-19T00:40:00.592Z,968.0
2017-08-19T00:41:02.247Z,968.0
2017-08-19T00:42:03.909Z,968.1
2017-08-19T00:43:05.573Z,968.1
2017-08-19T00:44:07.263Z,968.1
2017-08-19T00:45:08.894Z,968.0
2017-08-19T00:46:10.551Z,968.1
2017-08-19T00:47:12.211Z,968.0
2017-08-19T00:48:13.868Z,968.0
2017-08-19T00:49:15.572Z,968.1
2017-08-19T00:50:17.247Z,968.1
2017-08-19T00:51:18.900Z,968.1
2017-08-19T00:52:20.570Z,968.1
2017-08-19T00:53:22.234Z,968.1
2017-08-19T00:54:23.939Z,968.1
2017-08-19T00:55:25.586Z,968.1
2017-08-19T00:56:27.241Z,968.1
2017-08-19T00:57:28.899Z,968.1
2017-08-19T00:58:30.563Z,968.1
2017-08-19T00:59:32.223Z,968.1
2017-08-19T01:00:33.878Z,968.1
2017-08-19T01:01:35.533Z,968.1
2017-08-19T01:02:37.199Z,968.1
2017-08-19T01:03:38.862Z,968.1
2017-08-19T01:04:40.516Z,968.1
2017-08-19T01:05:42.171Z,968.1
2017-08-19T01:06:43.830Z,968.1
2017-08-19T01:07:45.488Z,968.1
2017-08-19T01:08:47.145Z,968.1
2017-08-19T01:09:48.835Z,968.1
2017-08-19T01:10:50.497Z,968.1
2017-08-19T01:11:52.226Z,968.1
2017-08-19T01:12:53.882Z,968.0
2017-08-19T01:13:55.543Z,968.0
2017-08-19T01:14:57.198Z,968.0
2017-08-19T01:15:58.863Z,968.0
2017-08-19T01:17:00.524Z,968.0
2017-08-19T01:18:02.184Z,968.0
2017-08-19T01:19:03.845Z,968.0
2017-08-19T01:20:05.508Z,968.0
2017-08-19T01:21:07.163Z,968.0
2017-08-19T01:22:08.824Z,968.0
2017-08-19T01:23:10.486Z,968.0
2017-08-19T01:24:12.144Z,968.1
2017-08-19T01:25:13.795Z,968.1
2017-08-19T01:26:15.449Z,968.1
2017-08-19T01:27:17.117Z,968.1
2017-08-19T01:28:18.778Z,968.1
2017-08-19T01:29:20.433Z,968.1
2017-08-19T01:30:22.083Z,968.1
2017-08-19T01:31:23.752Z,968.0
2017-08-19T01:32:25.402Z,968.0
2017-08-19T01:33:27.062Z,968.0
2017-08-19T01:34:28.722Z,968.0
2017-08-19T01:35:30.383Z,968.0
2017-08-19T01:36:32.046Z,968.1
2017-08-19T01:37:33.703Z,968.0
2017-08-19T01:38:35.359Z,968.0
2017-08-19T01:39:37.017Z,968.0
2017-08-19T01:40:38.673Z,968.0
2017-08-19T01:41:40.333Z,968.0
2017-08-19T01:42:41.990Z,968.0
2017-08-19T01:43:43.650Z,968.0
2017-08-19T01:44:45.313Z,968.0
2017-08-19T01:45:46.990Z,968.0
2017-08-19T01:46:48.645Z,967.9
2017-08-19T01:47:50.316Z,967.9
2017-08-19T01:48:51.974Z,968.0
2017-08-19T01:49:53.636Z,967.9
2017-08-19T01:50:55.288Z,967.9
2017-08-19T01:51:56.940Z,967.8
2017-08-19T01:52:58.604Z,967.9
2017-08-19T01:54:00.262Z,967.9
2017-08-19T01:55:01.923Z,967.9
2017-08-19T01:56:03.587Z,967.9
2017-08-19T01:57:05.242Z,967.9
2017-08-19T01:58:06.901Z,967.9
2017-08-19T01:59:08.552Z,967.9
2017-08-19T02:00:10.212Z,967.9
2017-08-19T02:01:11.879Z,967.9
2017-08-19T02:02:13.539Z,967.9
2017-08-19T02:03:15.205Z,967.9
2017-08-19T02:04:16.876Z,967.9
2017-08-19T02:05:18.524Z,967.9
2017-08-19T02:06:20.183Z,967.9
2017-08-19T02:07:21.843Z,967.9
2017-08-19T02:08:23.497Z,967.9
2017-08-19T02:09:25.158Z,968.0
2017-08-19T02:10:26.816Z,968.0
2017-08-19T02:11:28.479Z,968.0
2017-08-19T02:12:30.182Z,967.9
2017-08-19T02:13:31.830Z,968.0
2017-08-19T02:14:33.490Z,968.0
2017-08-19T02:15:35.142Z,968.0
2017-08-19T02:16:36.792Z,968.0
2017-08-19T02:17:38.449Z,968.0
2017-08-19T02:18:40.115Z,968.0
2017-08-19T02:19:41.766Z,968.0
2017-08-19T02:20:43.419Z,968.0
2017-08-19T02:21:45.072Z,968.0
2017-08-19T02:22:46.742Z,968.0
2017-08-19T02:23:48.391Z,967.9
2017-08-19T02:24:50.051Z,968.0
2017-08-19T02:25:51.715Z,968.0
2017-08-19T02:26:53.373Z,968.0
2017-08-19T02:27:55.039Z,968.0
2017-08-19T02:28:56.700Z,968.0
2017-08-19T02:29:58.353Z,968.0
2017-08-19T02:31:00.008Z,967.9
2017-08-19T02:32:01.667Z,968.0
2017-08-19T02:33:03.321Z,967.9
2017-08-19T02:34:04.977Z,967.9
2017-08-19T02:35:06.634Z,967.9
2017-08-19T02:36:08.293Z,968.0
2017-08-19T02:37:09.948Z,968.0
2017-08-19T02:38:11.604Z,968.0
2017-08-19T02:39:13.267Z,968.0
2017-08-19T02:40:14.926Z,968.0
2017-08-19T02:41:16.582Z,967.9
2017-08-19T02:42:18.237Z,967.9
2017-08-19T02:43:19.889Z,967.9
2017-08-19T02:44:21.551Z,967.9
2017-08-19T02:45:23.205Z,967.9
2017-08-19T02:46:24.861Z,967.9
2017-08-19T02:47:26.524Z,967.9
2017-08-19T02:48:28.175Z,967.9
2017-08-19T02:49:29.831Z,968.0
2017-08-19T02:50:31.487Z,968.0
2017-08-19T02:51:33.149Z,968.0
2017-08-19T02:52:34.811Z,968.0
2017-08-19T02:53:36.471Z,967.9
2017-08-19T02:54:38.126Z,968.0
2017-08-19T02:55:39.791Z,968.0
2017-08-19T02:56:41.449Z,968.0
2017-08-19T02:57:43.113Z,967.9
2017-08-19T02:58:44.765Z,968.0
2017-08-19T02:59:46.425Z,968.0
2017-08-19T03:00:48.076Z,968.0
2017-08-19T03:01:49.810Z,968.0
2017-08-19T03:02:51.480Z,968.0
2017-08-19T03:03:53.138Z,968.0
2017-08-19T03:04:54.800Z,968.0
2017-08-19T03:05:56.462Z,968.0
2017-08-19T03:06:58.128Z,968.0
2017-08-19T03:07:59.784Z,968.0
2017-08-19T03:09:01.447Z,968.0
2017-08-19T03:10:03.093Z,968.0
2017-08-19T03:11:04.753Z,968.0
2017-08-19T03:12:06.415Z,968.0
2017-08-19T03:13:08.077Z,968.1
2017-08-19T03:14:09.733Z,968.0
2017-08-19T03:15:11.391Z,968.0
2017-08-19T03:16:13.051Z,968.0
2017-08-19T03:17:14.698Z,968.0
2017-08-19T03:18:16.370Z,968.1
2017-08-19T03:19:18.022Z,968.1
2017-08-19T03:20:19.680Z,968.1
2017-08-19T03:21:21.336Z,968.1
2017-08-19T03:22:22.995Z,968.1
2017-08-19T03:23:24.657Z,968.1
2017-08-19T03:24:26.313Z,968.1
2017-08-19T03:25:27.972Z,968.1
2017-08-19T03:26:29.633Z,968.2
2017-08-19T03:27:31.300Z,968.1
2017-08-19T03:28:32.963Z,968.1
2017-08-19T03:29:34.629Z,968.2
2017-08-19T03:30:36.287Z,968.2
2017-08-19T03:31:37.952Z,968.2
2017-08-19T03:32:39.604Z,968.2
2017-08-19T03:33:41.256Z,968.2
2017-08-19T03:34:42.928Z,968.3
2017-08-19T03:35:44.589Z,968.3
2017-08-19T03:36:46.249Z,968.3
2017-08-19T03:37:47.904Z,968.3
2017-08-19T03:38:49.563Z,968.3
2017-08-19T03:39:51.221Z,968.3
2017-08-19T03:40:52.873Z,968.2
2017-08-19T03:41:54.541Z,968.3
2017-08-19T03:42:56.205Z,968.3
2017-08-19T03:43:57.865Z,968.3
2017-08-19T03:44:59.514Z,968.3
2017-08-19T03:46:01.176Z,968.4
2017-08-19T03:47:02.828Z,968.4
2017-08-19T03:48:04.485Z,968.4
2017-08-19T03:49:06.201Z,968.4
2017-08-19T03:50:07.859Z,968.4
2017-08-19T03:51:09.519Z,968.4
2017-08-19T03:52:11.178Z,968.4
2017-08-19T03:53:12.834Z,968.4
2017-08-19T03:54:14.520Z,968.4
2017-08-19T03:55:16.150Z,968.4
2017-08-19T03:56:17.817Z,968.4
2017-08-19T03:57:19.481Z,968.4
2017-08-19T03:58:21.131Z,968.4
2017-08-19T03:59:22.792Z,968.4
2017-08-19T04:00:24.448Z,968.4
2017-08-19T04:01:26.116Z,968.4
2017-08-19T04:02:27.773Z,968.4
2017-08-19T04:03:29.433Z,968.4
2017-08-19T04:04:31.115Z,968.4
2017-08-19T04:05:32.779Z,968.4
2017-08-19T04:06:34.440Z,968.4
2017-08-19T04:07:36.102Z,968.4
2017-08-19T04:08:37.758Z,968.4
2017-08-19T04:09:39.416Z,968.4
2017-08-19T04:10:41.071Z,968.4
2017-08-19T04:11:42.732Z,968.5
2017-08-19T04:12:44.387Z,968.5
2017-08-19T04:13:46.063Z,968.5
2017-08-19T04:14:47.730Z,968.4
2017-08-19T04:15:49.388Z,968.5
2017-08-19T04:16:51.055Z,968.4
2017-08-19T04:17:52.715Z,968.5
2017-08-19T04:18:54.377Z,968.4
2017-08-19T04:19:56.033Z,968.4
2017-08-19T04:20:57.697Z,968.4
2017-08-19T04:21:59.357Z,968.4
2017-08-19T04:23:01.014Z,968.4
2017-08-19T04:24:02.681Z,968.4
2017-08-19T04:25:04.339Z,968.4
2017-08-19T04:26:06.051Z,968.5
2017-08-19T04:27:07.718Z,968.4
2017-08-19T04:28:09.376Z,968.4
2017-08-19T04:29:11.029Z,968.4
2017-08-19T04:30:12.693Z,968.4
2017-08-19T04:31:14.354Z,968.5
2017-08-19T04:32:16.015Z,968.5
2017-08-19T04:33:17.678Z,968.5
2017-08-19T04:34:19.331Z,968.5
2017-08-19T04:35:20.992Z,968.5
2017-08-19T04:36:22.652Z,968.5
2017-08-19T04:37:24.314Z,968.5
2017-08-19T04:38:25.981Z,968.5
2017-08-19T04:39:27.645Z,968.5
2017-08-19T04:40:29.302Z,968.5
2017-08-19T04:41:30.963Z,968.5
2017-08-19T04:42:32.643Z,968.5
2017-08-19T04:43:34.296Z,968.5
2017-08-19T04:44:35.950Z,968.5
2017-08-19T04:45:37.612Z,968.5
2017-08-19T04:46:39.277Z,968.5
2017-08-19T04:47:40.942Z,968.6
2017-08-19T04:48:42.604Z,968.5
2017-08-19T04:49:44.272Z,968.5
2017-08-19T04:50:45.945Z,968.6
2017-08-19T04:51:47.593Z,968.6
2017-08-19T04:52:49.253Z,968.6
2017-08-19T04:53:50.920Z,968.6
2017-08-19T04:54:52.577Z,968.5
2017-08-19T04:55:54.247Z,968.6
2017-08-19T04:56:55.904Z,968.5
2017-08-19T04:57:57.566Z,968.5
2017-08-19T04:58:59.232Z,968.6
2017-08-19T05:00:00.895Z,968.5
2017-08-19T05:01:02.566Z,968.5
2017-08-19T05:02:04.233Z,968.5
2017-08-19T05:03:05.897Z,968.5
2017-08-19T05:04:07.563Z,968.5
2017-08-19T05:05:09.230Z,968.5
2017-08-19T05:06:10.904Z,968.5
2017-08-19T05:07:12.563Z,968.6
2017-08-19T05:08:14.228Z,968.5
2017-08-19T05:09:15.890Z,968.6
2017-08-19T05:10:17.561Z,968.6
2017-08-19T05:11:19.222Z,968.5
2017-08-19T05:12:20.889Z,968.5
2017-08-19T05:13:22.547Z,968.5
2017-08-19T05:14:24.218Z,968.5
2017-08-19T05:15:25.887Z,968.5
2017-08-19T05:16:27.552Z,968.6
2017-08-19T05:17:29.216Z,968.5
2017-08-19T05:18:30.884Z,968.5
2017-08-19T05:19:32.550Z,968.5
2017-08-19T05:20:34.208Z,968.6
2017-08-19T05:21:35.870Z,968.6
2017-08-19T05:22:37.535Z,968.6
2017-08-19T05:23:39.198Z,968.6
2017-08-19T05:24:40.877Z,968.7
2017-08-19T05:25:42.563Z,968.7
2017-08-19T05:26:44.221Z,968.7
2017-08-19T05:27:45.892Z,968.7
2017-08-19T05:28:47.586Z,968.6
2017-08-19T05:29:49.262Z,968.6
2017-08-19T05:30:50.926Z,968.6
2017-08-19T05:31:52.599Z,968.7
2017-08-19T05:32:54.259Z,968.6
2017-08-19T05:33:55.931Z,968.7
2017-08-19T05:34:57.594Z,968.7
2017-08-19T05:35:59.256Z,968.7
2017-08-19T05:37:00.920Z,968.7
2017-08-19T05:38:02.597Z,968.7
2017-08-19T05:39:04.285Z,968.7
2017-08-19T05:40:05.943Z,968.7
2017-08-19T05:41:07.619Z,968.7
2017-08-19T05:42:09.281Z,968.8
2017-08-19T05:43:10.952Z,968.7
2017-08-19T05:44:12.602Z,968.8
2017-08-19T05:45:14.273Z,968.8
2017-08-19T05:46:15.967Z,968.8
2017-08-19T05:47:17.635Z,968.8
2017-08-19T05:48:19.296Z,968.8
2017-08-19T05:49:20.965Z,968.8
2017-08-19T05:50:22.630Z,968.8
2017-08-19T05:51:24.294Z,968.8
2017-08-19T05:52:25.958Z,968.8
2017-08-19T05:53:27.613Z,968.9
2017-08-19T05:54:29.294Z,968.9
2017-08-19T05:55:30.960Z,969.0
2017-08-19T05:56:32.627Z,968.9
2017-08-19T05:57:34.285Z,968.9
2017-08-19T05:58:35.941Z,968.9
2017-08-19T05:59:37.609Z,969.0
2017-08-19T06:00:39.276Z,969.0
2017-08-19T06:01:40.947Z,969.0
2017-08-19T06:02:42.610Z,968.9
2017-08-19T06:03:44.269Z,969.0
2017-08-19T06:04:45.931Z,969.0
2017-08-19T06:05:47.595Z,969.0
2017-08-19T06:06:49.268Z,969.0
2017-08-19T06:07:50.939Z,969.1
2017-08-19T06:08:52.603Z,969.0
2017-08-19T06:09:54.284Z,969.1
2017-08-19T06:10:55.923Z,969.1
2017-08-19T06:11:57.595Z,969.1
2017-08-19T06:12:59.259Z,969.1
2017-08-19T06:14:00.918Z,969.1
2017-08-19T06:15:02.588Z,969.1
2017-08-19T06:16:04.256Z,969.3
2017-08-19T06:17:05.926Z,969.2
2017-08-19T06:18:07.586Z,969.2
2017-08-19T06:19:09.254Z,969.2
2017-08-19T06:20:10.921Z,969.2
2017-08-19T06:21:12.589Z,969.2
2017-08-19T06:22:14.286Z,969.2
2017-08-19T06:23:15.944Z,969.2
2017-08-19T06:24:17.610Z,969.3
2017-08-19T06:25:19.279Z,969.3
2017-08-19T06:26:20.947Z,969.3
2017-08-19T06:27:22.611Z,969.4
2017-08-19T06:28:24.274Z,969.3
2017-08-19T06:29:25.932Z,969.3
2017-08-19T06:30:27.595Z,969.4
2017-08-19T06:31:29.267Z,969.3
2017-08-19T06:32:30.934Z,969.3
2017-08-19T06:33:32.605Z,969.4
2017-08-19T06:34:34.272Z,969.4
2017-08-19T06:35:35.938Z,969.4
2017-08-19T06:36:37.603Z,969.4
2017-08-19T06:37:39.273Z,969.3
2017-08-19T06:38:40.933Z,969.4
2017-08-19T06:39:42.598Z,969.3
2017-08-19T06:40:44.265Z,969.4
2017-08-19T06:41:45.926Z,969.3
2017-08-19T06:42:47.608Z,969.4
2017-08-19T06:43:49.273Z,969.4
2017-08-19T06:44:50.936Z,969.4
2017-08-19T06:45:52.607Z,969.4
2017-08-19T06:46:54.274Z,969.4
2017-08-19T06:47:55.943Z,969.4
2017-08-19T06:48:57.675Z,969.4
2017-08-19T06:49:59.339Z,969.4
2017-08-19T06:51:00.999Z,969.5
2017-08-19T06:52:02.681Z,969.5
2017-08-19T06:53:04.351Z,969.4
2017-08-19T06:54:06.022Z,969.5
2017-08-19T06:55:07.681Z,969.5
2017-08-19T06:56:09.349Z,969.4
2017-08-19T06:57:11.020Z,969.4
2017-08-19T06:58:12.688Z,969.5
2017-08-19T06:59:14.348Z,969.5
2017-08-19T07:00:16.009Z,969.5
2017-08-19T07:01:17.678Z,969.5
2017-08-19T07:02:19.345Z,969.6
2017-08-19T07:03:21.003Z,969.5
2017-08-19T07:04:22.669Z,969.4
2017-08-19T07:05:24.345Z,969.5
2017-08-19T07:06:26.056Z,969.4
2017-08-19T07:07:27.731Z,969.5
2017-08-19T07:08:29.416Z,969.4
2017-08-19T07:09:31.082Z,969.4
2017-08-19T07:10:32.749Z,969.5
2017-08-19T07:11:34.408Z,969.6
2017-08-19T07:12:36.138Z,969.4
2017-08-19T07:13:37.869Z,969.5
2017-08-19T07:14:39.553Z,969.5
2017-08-19T07:15:41.206Z,969.5
2017-08-19T07:16:42.877Z,969.6
2017-08-19T07:17:45.456Z,969.5
2017-08-19T07:18:47.142Z,969.5
2017-08-19T07:19:48.815Z,969.5
2017-08-19T07:20:50.541Z,969.5
2017-08-19T07:21:52.209Z,969.5
2017-08-19T07:22:53.877Z,969.5
2017-08-19T07:23:55.548Z,969.5
2017-08-19T07:24:57.221Z,969.6
2017-08-19T07:25:58.893Z,969.5
2017-08-19T07:27:00.560Z,969.7
2017-08-19T07:28:02.260Z,969.6
2017-08-19T07:29:03.901Z,969.5
2017-08-19T07:30:05.579Z,969.5
2017-08-19T07:31:07.250Z,969.6
2017-08-19T07:32:08.920Z,969.5
2017-08-19T07:33:10.596Z,969.5
2017-08-19T07:34:12.275Z,969.5
2017-08-19T07:35:13.939Z,969.6
2017-08-19T07:36:15.615Z,969.6
2017-08-19T07:37:17.274Z,969.7
2017-08-19T07:38:18.962Z,969.5
2017-08-19T07:39:20.636Z,969.5
2017-08-19T07:40:22.336Z,969.6
2017-08-19T07:41:24.007Z,969.6
2017-08-19T07:42:25.671Z,969.5
2017-08-19T07:43:27.382Z,969.6
2017-08-19T07:44:29.052Z,969.7
2017-08-19T07:45:30.721Z,969.5
2017-08-19T07:46:32.392Z,969.5
2017-08-19T07:47:34.060Z,969.5
2017-08-19T07:48:36.346Z,969.5
2017-08-19T07:49:38.022Z,969.5
2017-08-19T07:50:39.693Z,969.7
2017-08-19T07:51:41.369Z,969.7
2017-08-19T07:52:43.040Z,969.8
2017-08-19T07:53:44.709Z,969.8
2017-08-19T07:54:47.694Z,969.9
2017-08-19T07:55:49.373Z,969.6
2017-08-19T07:56:51.054Z,969.5
2017-08-19T07:57:52.741Z,969.8
2017-08-19T07:58:54.411Z,969.8
2017-08-19T07:59:56.094Z,969.8
2017-08-19T08:00:57.771Z,969.9
2017-08-19T08:02:00.449Z,969.9
2017-08-19T08:03:02.127Z,969.8
2017-08-19T08:04:03.808Z,969.8
2017-08-19T08:05:06.489Z,969.8
2017-08-19T08:06:08.163Z,969.7
2017-08-19T08:07:09.850Z,969.7
2017-08-19T08:08:11.533Z,969.8
2017-08-19T08:09:13.201Z,969.8
2017-08-19T08:10:14.879Z,970.0
2017-08-19T08:11:16.564Z,969.9
2017-08-19T08:12:18.234Z,969.8
2017-08-19T08:13:19.908Z,970.0
2017-08-19T08:14:21.584Z,970.0
2017-08-19T08:15:23.257Z,969.9
2017-08-19T08:16:24.930Z,969.9
2017-08-19T08:17:26.603Z,969.9
2017-08-19T08:18:28.272Z,969.8
2017-08-19T08:19:29.940Z,969.8
2017-08-19T08:20:31.606Z,969.9
2017-08-19T08:21:33.280Z,969.9
2017-08-19T08:22:34.955Z,969.9
2017-08-19T08:23:36.624Z,970.0
2017-08-19T08:24:38.323Z,969.9
2017-08-19T08:25:40.012Z,970.0
2017-08-19T08:26:41.690Z,970.0
2017-08-19T08:27:43.362Z,970.2
2017-08-19T08:28:45.032Z,970.0
2017-08-19T08:29:46.697Z,969.9
2017-08-19T08:30:48.373Z,969.9
2017-08-19T08:31:50.044Z,969.9
2017-08-19T08:32:51.736Z,969.9
2017-08-19T08:33:53.407Z,970.0
2017-08-19T08:34:55.073Z,969.9
2017-08-19T08:35:56.751Z,969.9
2017-08-19T08:36:58.418Z,970.0
2017-08-19T08:38:00.097Z,969.9
2017-08-19T08:39:01.770Z,969.9
2017-08-19T08:40:03.448Z,969.9
2017-08-19T08:41:05.118Z,970.0
2017-08-19T08:42:06.787Z,969.8
2017-08-19T08:43:08.478Z,969.9
2017-08-19T08:44:10.161Z,970.2
2017-08-19T08:45:11.830Z,970.0
2017-08-19T08:46:13.496Z,969.9
2017-08-19T08:47:15.169Z,970.0
2017-08-19T08:48:16.843Z,969.9
2017-08-19T08:49:18.518Z,969.9
2017-08-19T08:50:20.188Z,969.8
2017-08-19T08:51:21.892Z,969.9
2017-08-19T08:52:23.557Z,969.9
2017-08-19T08:53:25.226Z,969.8
2017-08-19T08:54:26.899Z,970.0
2017-08-19T08:55:28.583Z,970.2
2017-08-19T08:56:30.248Z,969.9
2017-08-19T08:57:32.000Z,970.1
2017-08-19T08:58:33.668Z,970.1
2017-08-19T08:59:35.339Z,969.9
2017-08-19T09:00:37.019Z,970.0
2017-08-19T09:01:38.702Z,970.0
2017-08-19T09:02:40.359Z,969.9
2017-08-19T09:03:42.040Z,970.0
2017-08-19T09:04:43.723Z,970.0
2017-08-19T09:05:45.386Z,969.9
2017-08-19T09:06:47.060Z,969.9
2017-08-19T09:07:48.731Z,969.8
2017-08-19T09:08:50.435Z,969.9
2017-08-19T09:09:52.109Z,969.8
2017-08-19T09:10:53.790Z,970.0
2017-08-19T09:11:55.520Z,969.9
2017-08-19T09:12:57.198Z,970.0
2017-08-19T09:13:58.875Z,970.2
2017-08-19T09:15:00.546Z,970.1
2017-08-19T09:16:02.219Z,970.1
2017-08-19T09:17:03.889Z,970.1
2017-08-19T09:18:05.556Z,970.1
2017-08-19T09:19:07.226Z,970.1
2017-08-19T09:20:08.899Z,970.0
2017-08-19T09:21:10.627Z,970.0
2017-08-19T09:22:12.296Z,970.1
2017-08-19T09:23:13.976Z,970.1
2017-08-19T09:24:15.734Z,970.1
2017-08-19T09:25:17.393Z,970.1
2017-08-19T10:43:49.146Z,970.2
2017-08-19T10:44:50.812Z,970.2
2017-08-19T10:45:52.476Z,970.2
2017-08-19T10:46:54.146Z,970.1
2017-08-19T10:47:55.819Z,969.9
2017-08-19T10:48:57.497Z,969.9
2017-08-19T10:49:59.183Z,970.0
2017-08-19T10:51:00.852Z,970.1
2017-08-19T10:52:02.659Z,970.2
2017-08-19T10:53:04.334Z,970.2
2017-08-19T10:54:06.081Z,970.3
2017-08-19T10:55:07.734Z,970.2
2017-08-19T10:56:09.412Z,970.2
2017-08-19T10:57:11.086Z,970.2
2017-08-19T10:58:12.770Z,970.2
2017-08-19T10:59:14.425Z,970.1
2017-08-19T11:00:16.094Z,970.2
2017-08-19T11:01:17.763Z,970.2
2017-08-19T11:02:19.435Z,970.1
2017-08-19T11:03:21.170Z,970.0
2017-08-19T11:04:22.894Z,970.0
2017-08-19T11:05:24.583Z,970.0
2017-08-19T11:06:26.251Z,970.0
2017-08-19T11:07:27.926Z,970.0
2017-08-19T11:08:29.623Z,969.9
2017-08-19T11:09:31.292Z,970.0
2017-08-19T11:10:32.960Z,970.0
2017-08-19T11:11:34.622Z,970.0
2017-08-19T11:12:36.301Z,970.1
2017-08-19T11:13:37.966Z,970.1
2017-08-19T11:14:39.750Z,970.1
2017-08-19T11:15:41.427Z,970.3
2017-08-19T11:16:43.100Z,970.3
2017-08-19T11:17:44.774Z,970.3
2017-08-19T11:18:46.444Z,970.4
2017-08-19T11:19:48.125Z,970.3
2017-08-19T11:20:49.830Z,970.4
2017-08-19T11:21:51.499Z,970.3
2017-08-19T11:22:53.171Z,970.4
2017-08-19T11:23:54.841Z,970.4
2017-08-19T11:24:56.506Z,970.4
2017-08-19T11:25:58.257Z,970.3
2017-08-19T11:26:59.880Z,970.4
2017-08-19T11:28:01.543Z,970.5
2017-08-19T11:29:03.207Z,970.5
2017-08-19T11:30:04.874Z,970.5
2017-08-19T11:31:06.546Z,970.5
2017-08-19T11:32:09.168Z,970.5
2017-08-19T11:33:13.246Z,970.7
2017-08-19T11:34:14.511Z,970.6
2017-08-19T11:35:16.195Z,970.7
2017-08-19T11:36:17.963Z,970.8
2017-08-19T11:37:19.649Z,970.6
2017-08-19T11:38:21.478Z,970.7
2017-08-19T11:39:23.148Z,970.5
2017-08-19T11:40:24.820Z,971.0
2017-08-19T11:41:26.533Z,970.7
2017-08-19T11:42:28.200Z,970.6
2017-08-19T11:43:29.865Z,970.7
2017-08-19T11:44:31.547Z,970.7
2017-08-19T11:45:33.212Z,970.9
2017-08-19T11:46:34.904Z,970.8
2017-08-19T11:47:36.766Z,970.9
2017-08-19T11:48:38.467Z,970.8
2017-08-19T11:49:40.153Z,971.0
2017-08-19T11:50:41.828Z,970.9
2017-08-19T11:51:43.506Z,970.9
2017-08-19T11:52:45.169Z,970.7
2017-08-19T11:53:46.844Z,971.0
2017-08-19T11:54:48.544Z,971.1
2017-08-19T11:55:50.220Z,970.7
2017-08-19T11:56:51.887Z,970.6
2017-08-19T11:57:53.576Z,970.5
2017-08-19T11:58:55.238Z,970.6
2017-08-19T11:59:56.915Z,970.6
2017-08-19T12:00:58.594Z,970.7
2017-08-19T12:02:00.263Z,970.6
2017-08-19T12:03:01.936Z,970.4
2017-08-19T12:04:03.614Z,970.5
2017-08-19T12:05:06.414Z,970.5
2017-08-19T12:06:08.083Z,970.5
2017-08-19T12:07:09.763Z,970.5
2017-08-19T12:08:11.435Z,970.6
2017-08-19T12:09:17.730Z,970.4
2017-08-19T12:10:18.850Z,970.5
2017-08-19T12:11:20.512Z,970.4
2017-08-19T12:12:22.379Z,970.3
2017-08-19T12:13:24.040Z,970.3
2017-08-19T12:14:25.716Z,970.4
2017-08-19T12:15:27.453Z,970.3
2017-08-19T12:16:29.134Z,970.3
2017-08-19T12:17:30.892Z,970.4
2017-08-19T12:18:32.551Z,970.4
2017-08-19T12:19:34.223Z,970.5
2017-08-19T12:20:36.145Z,970.7
2017-08-19T12:21:37.813Z,970.9
2017-08-19T12:22:39.486Z,970.9
2017-08-19T12:23:41.915Z,971.0
2017-08-19T12:24:43.599Z,971.1
2017-08-19T12:25:45.263Z,970.9
2017-08-19T12:26:46.960Z,970.9
2017-08-19T12:27:48.613Z,970.6
2017-08-19T12:28:50.291Z,970.7
2017-08-19T12:29:51.970Z,970.7
2017-08-19T12:30:53.680Z,970.6
2017-08-19T12:31:55.401Z,970.6
2017-08-19T12:32:57.099Z,970.5
2017-08-19T12:33:59.702Z,970.5
2017-08-19T12:35:01.381Z,970.6
2017-08-19T12:36:03.050Z,970.6
2017-08-19T12:37:04.729Z,970.8
2017-08-19T12:38:06.397Z,970.8
2017-08-19T12:39:08.066Z,970.8
2017-08-19T12:40:09.732Z,970.8
2017-08-19T19:21:16.088Z,972.4
2017-08-19T19:22:17.737Z,972.4
2017-08-19T19:23:19.723Z,972.4
2017-08-19T19:24:21.786Z,972.4
2017-08-19T19:25:26.425Z,972.4
2017-08-19T19:26:32.778Z,972.4
2017-08-19T20:43:05.581Z,972.6
2017-08-19T20:44:07.581Z,972.6
2017-08-19T20:45:09.255Z,972.6
2017-08-19T20:46:11.189Z,972.6
2017-08-19T20:47:13.156Z,972.7
2017-08-19T20:48:14.819Z,972.7
2017-08-19T20:49:18.349Z,972.7
2017-08-19T20:50:19.861Z,972.6
2017-08-19T20:51:21.598Z,972.6
2017-08-19T20:52:23.266Z,972.7
2017-08-19T20:53:25.130Z,972.6
2017-08-19T20:54:29.948Z,972.6
2017-08-19T20:55:32.354Z,972.6
2017-08-19T20:56:34.046Z,972.6
2017-08-19T20:57:37.617Z,972.6
2017-08-19T20:58:39.345Z,972.6
2017-08-19T20:59:41.083Z,972.6
2017-08-19T23:15:34.663Z,972.7
2017-08-19T23:16:36.315Z,972.7
2017-08-19T23:17:37.980Z,972.8
2017-08-19T23:18:39.657Z,972.7
2017-08-19T23:19:41.327Z,972.7
2017-08-19T23:20:42.984Z,972.8
2017-08-19T23:21:44.646Z,972.7
2017-08-19T23:22:46.305Z,972.8
2017-08-19T23:23:48.024Z,972.8
2017-08-19T23:24:49.698Z,972.8
2017-08-19T23:25:51.357Z,972.7
2017-08-19T23:26:53.014Z,972.8
2017-08-19T23:27:54.671Z,972.7
2017-08-19T23:28:56.325Z,972.7
2017-08-19T23:29:57.984Z,972.7
2017-08-19T23:30:59.640Z,972.7
2017-08-19T23:32:01.294Z,972.7
2017-08-19T23:33:02.953Z,972.7
2017-08-19T23:34:04.612Z,972.8
2017-08-19T23:35:06.274Z,972.8
2017-08-19T23:36:07.938Z,972.7
2017-08-19T23:37:09.590Z,972.7
2017-08-19T23:38:11.252Z,972.7
2017-08-19T23:39:12.908Z,972.7
2017-08-19T23:40:14.574Z,972.8
2017-08-19T23:41:16.225Z,972.7
2017-08-19T23:42:17.891Z,972.7
2017-08-19T23:43:19.558Z,972.7
2017-08-19T23:44:21.205Z,972.8
2017-08-19T23:45:22.867Z,972.7
2017-08-19T23:46:24.581Z,972.8
2017-08-19T23:47:26.239Z,972.8
2017-08-19T23:48:27.910Z,972.7
2017-08-19T23:49:29.570Z,972.8
2017-08-19T23:50:31.245Z,972.8
2017-08-19T23:51:32.887Z,972.8
2017-08-19T23:52:34.551Z,972.8
2017-08-19T23:53:36.204Z,972.8
2017-08-19T23:54:37.856Z,972.8
2017-08-19T23:55:39.522Z,972.7
2017-08-19T23:56:41.180Z,972.7
2017-08-19T23:57:42.837Z,972.7
2017-08-19T23:58:44.500Z,972.7
2017-08-19T23:59:46.168Z,972.7
